aviador You're here:

YTNK Decoded Metar

TENNANT CREEK in _UNIDENTIFIED
Report Time2017-10-24 02:00:00
UTC Time2017-10-24 02:22:37
Flight Rules vfr VFR
Wind080° at 09 kt
W.Decomp.*RWY 07: 9.0 kt HW 0.9 kt RCW
RWY 11: 7.5 kt HW 5 kt LCW
W.Rank080° ranks 5
Current wind is above 080° avg. (8.5)
Visibility9999 m
Phenomena:N/A
Clouds:N/A
Expected CloudBase > 17,200 ft AGL from Temp-Dew spread
CeilingNone
Temp34°C (ISA +21)
Dew Point-9°C (6% RH)
Heat Index31.5°C
AAT27.8°C
QNH1016 hPa
Density Alt3,619 ft
Elevation1,237 ft
Report Wrong Elevation
Raw Report
YTNK 240200Z AUTO 08009KT 350V090 9999 // NCD 34/M09 Q1016=

Extra information for YTNK:More info

Metar Taf Metar & Taf Last 4 Metars F.Rules Stats Wind Profile Meteogram Temp Stats Airport Information Weather charts Add Link Nearby VenuesMetar ALERT Operation Metar Decoded Social comments